Terminal Aerodrome Forecast
Issued by NWS

Home | Current Version | Previous Version | Text Only | Print | Product List | Glossary On
Versions: 1 2 3 4 5 6 7 8 9 10 11 12 13 14 15 16 17 18
000
FTUS43 KGRB 271819 AAA
TAFAUW
TAF AMD
KAUW 271819Z 2718/2818 32005KT P6SM OVC011
     FM280500 03004KT P6SM BKN008
     FM280800 02004KT 5SM BR BKN008
     FM281500 05006KT P6SM SCT250=

USA.gov is the U.S. government's official web portal to all federal, state and local government web resources and services.